sensor_id;sensor_type;location;lat;lon;timestamp;temperature;humidity
17762;DHT22;9005;48.838;10.112;2023-04-30T00:02:06;10.00;99.90
17762;DHT22;9005;48.838;10.112;2023-04-30T00:04:34;10.00;99.90
17762;DHT22;9005;48.838;10.112;2023-04-30T00:07:01;10.00;99.90
17762;DHT22;9005;48.838;10.112;2023-04-30T00:09:28;10.00;99.90
17762;DHT22;9005;48.838;10.112;2023-04-30T00:11:55;10.00;99.90
17762;DHT22;9005;48.838;10.112;2023-04-30T00:14:22;10.00;99.90
17762;DHT22;9005;48.838;10.112;2023-04-30T00:16:49;10.00;99.90
17762;DHT22;9005;48.838;10.112;2023-04-30T00:19:15;10.00;99.90
17762;DHT22;9005;48.838;10.112;2023-04-30T00:21:43;10.00;99.90
17762;DHT22;9005;48.838;10.112;2023-04-30T00:24:10;9.90;99.90
17762;DHT22;9005;48.838;10.112;2023-04-30T00:26:37;10.00;99.90
17762;DHT22;9005;48.838;10.112;2023-04-30T00:29:03;10.00;99.90
17762;DHT22;9005;48.838;10.112;2023-04-30T00:31:31;10.00;99.90
17762;DHT22;9005;48.838;10.112;2023-04-30T00:33:58;9.90;99.90
17762;DHT22;9005;48.838;10.112;2023-04-30T00:36:24;9.90;99.90
17762;DHT22;9005;48.838;10.112;2023-04-30T00:38:52;9.90;99.90
17762;DHT22;9005;48.838;10.112;2023-04-30T00:41:20;9.90;99.90
17762;DHT22;9005;48.838;10.112;2023-04-30T00:43:48;9.90;99.90
17762;DHT22;9005;48.838;10.112;2023-04-30T00:46:14;9.90;99.90
17762;DHT22;9005;48.838;10.112;2023-04-30T00:48:41;10.00;99.90
17762;DHT22;9005;48.838;10.112;2023-04-30T00:51:08;9.90;99.90
17762;DHT22;9005;48.838;10.112;2023-04-30T00:53:36;9.90;99.90
17762;DHT22;9005;48.838;10.112;2023-04-30T00:56:05;9.80;99.90
17762;DHT22;9005;48.838;10.112;2023-04-30T00:58:34;9.80;99.90
17762;DHT22;9005;48.838;10.112;2023-04-30T01:01:01;9.70;99.90
17762;DHT22;9005;48.838;10.112;2023-04-30T01:03:28;9.60;99.90
17762;DHT22;9005;48.838;10.112;2023-04-30T01:05:55;9.70;99.90
17762;DHT22;9005;48.838;10.112;2023-04-30T01:08:22;9.60;99.90
17762;DHT22;9005;48.838;10.112;2023-04-30T01:10:53;9.60;99.90
17762;DHT22;9005;48.838;10.112;2023-04-30T01:13:26;9.60;99.90
17762;DHT22;9005;48.838;10.112;2023-04-30T01:15:58;9.60;99.90
17762;DHT22;9005;48.838;10.112;2023-04-30T01:18:28;9.60;99.90
17762;DHT22;9005;48.838;10.112;2023-04-30T01:21:00;9.60;99.90
17762;DHT22;9005;48.838;10.112;2023-04-30T01:23:41;9.50;99.90
17762;DHT22;9005;48.838;10.112;2023-04-30T01:26:13;9.50;99.90
17762;DHT22;9005;48.838;10.112;2023-04-30T01:28:42;9.50;99.90
17762;DHT22;9005;48.838;10.112;2023-04-30T01:31:13;9.50;99.90
17762;DHT22;9005;48.838;10.112;2023-04-30T01:33:41;9.50;99.90
17762;DHT22;9005;48.838;10.112;2023-04-30T01:36:17;9.50;99.90
17762;DHT22;9005;48.838;10.112;2023-04-30T01:38:55;9.50;99.90
17762;DHT22;9005;48.838;10.112;2023-04-30T01:41:29;9.50;99.90
17762;DHT22;9005;48.838;10.112;2023-04-30T01:44:10;9.50;99.90
17762;DHT22;9005;48.838;10.112;2023-04-30T01:46:40;9.50;99.90
17762;DHT22;9005;48.838;10.112;2023-04-30T01:49:17;9.50;99.90
17762;DHT22;9005;48.838;10.112;2023-04-30T01:51:45;9.60;99.90
17762;DHT22;9005;48.838;10.112;2023-04-30T01:54:18;9.50;99.90
17762;DHT22;9005;48.838;10.112;2023-04-30T01:56:53;9.60;99.90
17762;DHT22;9005;48.838;10.112;2023-04-30T01:59:25;9.50;99.90
17762;DHT22;9005;48.838;10.112;2023-04-30T02:01:54;9.50;99.90
17762;DHT22;9005;48.838;10.112;2023-04-30T02:04:21;9.40;99.90
17762;DHT22;9005;48.838;10.112;2023-04-30T02:09:15;9.50;99.90
17762;DHT22;9005;48.838;10.112;2023-04-30T02:11:42;9.50;99.90
17762;DHT22;9005;48.838;10.112;2023-04-30T02:14:08;9.40;99.90
17762;DHT22;9005;48.838;10.112;2023-04-30T02:16:36;9.40;99.90
17762;DHT22;9005;48.838;10.112;2023-04-30T02:19:03;9.40;99.90
17762;DHT22;9005;48.838;10.112;2023-04-30T02:21:30;9.30;99.90
17762;DHT22;9005;48.838;10.112;2023-04-30T02:23:57;9.30;99.90
17762;DHT22;9005;48.838;10.112;2023-04-30T02:26:23;9.30;99.90
17762;DHT22;9005;48.838;10.112;2023-04-30T02:28:51;9.20;99.90
17762;DHT22;9005;48.838;10.112;2023-04-30T02:31:17;9.20;99.90
17762;DHT22;9005;48.838;10.112;2023-04-30T02:33:46;9.20;99.90
17762;DHT22;9005;48.838;10.112;2023-04-30T02:36:12;9.20;99.90
17762;DHT22;9005;48.838;10.112;2023-04-30T02:38:39;9.20;99.90
17762;DHT22;9005;48.838;10.112;2023-04-30T02:41:06;9.20;99.90
17762;DHT22;9005;48.838;10.112;2023-04-30T02:43:32;9.10;99.90
17762;DHT22;9005;48.838;10.112;2023-04-30T02:45:59;9.10;99.90
17762;DHT22;9005;48.838;10.112;2023-04-30T02:48:26;9.10;99.90
17762;DHT22;9005;48.838;10.112;2023-04-30T02:50:54;9.10;99.90
17762;DHT22;9005;48.838;10.112;2023-04-30T02:53:20;9.00;99.90
17762;DHT22;9005;48.838;10.112;2023-04-30T02:55:47;9.00;99.90
17762;DHT22;9005;48.838;10.112;2023-04-30T02:58:14;9.00;99.90
17762;DHT22;9005;48.838;10.112;2023-04-30T03:00:41;9.00;99.90
17762;DHT22;9005;48.838;10.112;2023-04-30T03:03:07;9.00;99.90
17762;DHT22;9005;48.838;10.112;2023-04-30T03:05:34;9.00;99.90
17762;DHT22;9005;48.838;10.112;2023-04-30T03:08:02;9.00;99.90
17762;DHT22;9005;48.838;10.112;2023-04-30T03:10:29;9.00;99.90
17762;DHT22;9005;48.838;10.112;2023-04-30T03:12:56;9.00;99.90
17762;DHT22;9005;48.838;10.112;2023-04-30T03:15:22;8.90;99.90
17762;DHT22;9005;48.838;10.112;2023-04-30T03:17:49;8.90;99.90
17762;DHT22;9005;48.838;10.112;2023-04-30T03:20:16;8.90;99.90
17762;DHT22;9005;48.838;10.112;2023-04-30T03:22:43;8.90;99.90
17762;DHT22;9005;48.838;10.112;2023-04-30T03:25:11;8.90;99.90
17762;DHT22;9005;48.838;10.112;2023-04-30T03:27:38;8.90;99.90
17762;DHT22;9005;48.838;10.112;2023-04-30T03:30:06;8.80;99.90
17762;DHT22;9005;48.838;10.112;2023-04-30T03:32:32;8.90;99.90
17762;DHT22;9005;48.838;10.112;2023-04-30T03:34:59;8.90;99.90
17762;DHT22;9005;48.838;10.112;2023-04-30T03:37:26;8.90;99.90
17762;DHT22;9005;48.838;10.112;2023-04-30T03:39:53;8.80;99.90
17762;DHT22;9005;48.838;10.112;2023-04-30T03:42:21;8.80;99.90
17762;DHT22;9005;48.838;10.112;2023-04-30T03:44:47;8.80;99.90
17762;DHT22;9005;48.838;10.112;2023-04-30T03:47:14;8.70;99.90
17762;DHT22;9005;48.838;10.112;2023-04-30T03:49:41;8.70;99.90
17762;DHT22;9005;48.838;10.112;2023-04-30T03:52:07;8.70;99.90
17762;DHT22;9005;48.838;10.112;2023-04-30T03:54:34;8.70;99.90
17762;DHT22;9005;48.838;10.112;2023-04-30T03:57:01;8.60;99.90
17762;DHT22;9005;48.838;10.112;2023-04-30T03:59:30;8.60;99.90
17762;DHT22;9005;48.838;10.112;2023-04-30T04:01:59;8.60;99.90
17762;DHT22;9005;48.838;10.112;2023-04-30T04:04:26;8.50;99.90
17762;DHT22;9005;48.838;10.112;2023-04-30T04:06:53;8.60;99.90
17762;DHT22;9005;48.838;10.112;2023-04-30T04:09:19;8.60;99.90
17762;DHT22;9005;48.838;10.112;2023-04-30T04:11:46;8.60;99.90
17762;DHT22;9005;48.838;10.112;2023-04-30T04:14:13;8.60;99.90
17762;DHT22;9005;48.838;10.112;2023-04-30T04:16:42;8.70;99.90
17762;DHT22;9005;48.838;10.112;2023-04-30T04:19:09;8.60;99.90
17762;DHT22;9005;48.838;10.112;2023-04-30T04:21:37;8.70;99.90
17762;DHT22;9005;48.838;10.112;2023-04-30T04:24:04;8.70;99.90
17762;DHT22;9005;48.838;10.112;2023-04-30T04:26:33;8.80;99.90
17762;DHT22;9005;48.838;10.112;2023-04-30T04:29:00;8.90;99.90
17762;DHT22;9005;48.838;10.112;2023-04-30T04:31:27;8.90;99.90
17762;DHT22;9005;48.838;10.112;2023-04-30T04:33:55;9.00;99.90
17762;DHT22;9005;48.838;10.112;2023-04-30T04:36:23;9.00;99.90
17762;DHT22;9005;48.838;10.112;2023-04-30T04:38:52;9.10;99.90
17762;DHT22;9005;48.838;10.112;2023-04-30T04:41:18;9.10;99.90
17762;DHT22;9005;48.838;10.112;2023-04-30T04:43:45;9.20;99.90
17762;DHT22;9005;48.838;10.112;2023-04-30T04:46:12;9.30;99.90
17762;DHT22;9005;48.838;10.112;2023-04-30T04:48:41;9.30;99.90
17762;DHT22;9005;48.838;10.112;2023-04-30T04:51:09;9.30;99.90
17762;DHT22;9005;48.838;10.112;2023-04-30T04:53:36;9.40;99.90
17762;DHT22;9005;48.838;10.112;2023-04-30T04:56:03;9.40;99.90
17762;DHT22;9005;48.838;10.112;2023-04-30T04:58:30;9.50;99.90
17762;DHT22;9005;48.838;10.112;2023-04-30T05:00:57;9.50;99.90
17762;DHT22;9005;48.838;10.112;2023-04-30T05:03:24;9.60;99.90
17762;DHT22;9005;48.838;10.112;2023-04-30T05:05:51;9.60;99.90
17762;DHT22;9005;48.838;10.112;2023-04-30T05:08:19;9.80;99.90
17762;DHT22;9005;48.838;10.112;2023-04-30T05:10:46;9.70;99.90
17762;DHT22;9005;48.838;10.112;2023-04-30T05:13:13;9.80;99.90
17762;DHT22;9005;48.838;10.112;2023-04-30T05:15:40;9.80;99.90
17762;DHT22;9005;48.838;10.112;2023-04-30T05:18:06;9.90;99.90
17762;DHT22;9005;48.838;10.112;2023-04-30T05:20:33;10.00;99.90
17762;DHT22;9005;48.838;10.112;2023-04-30T05:23:00;10.00;99.90
17762;DHT22;9005;48.838;10.112;2023-04-30T05:25:29;10.00;99.90
17762;DHT22;9005;48.838;10.112;2023-04-30T05:27:55;10.10;99.90
17762;DHT22;9005;48.838;10.112;2023-04-30T05:30:23;10.20;99.90
17762;DHT22;9005;48.838;10.112;2023-04-30T05:32:50;10.20;99.90
17762;DHT22;9005;48.838;10.112;2023-04-30T05:35:17;10.30;99.90
17762;DHT22;9005;48.838;10.112;2023-04-30T05:37:44;10.30;99.90
17762;DHT22;9005;48.838;10.112;2023-04-30T05:40:12;10.30;99.90
17762;DHT22;9005;48.838;10.112;2023-04-30T05:42:40;10.30;99.90
17762;DHT22;9005;48.838;10.112;2023-04-30T05:45:08;10.40;99.90
17762;DHT22;9005;48.838;10.112;2023-04-30T05:47:36;10.50;99.90
17762;DHT22;9005;48.838;10.112;2023-04-30T05:50:04;10.50;99.90
17762;DHT22;9005;48.838;10.112;2023-04-30T05:52:31;10.50;99.90
17762;DHT22;9005;48.838;10.112;2023-04-30T05:54:57;10.60;99.90
17762;DHT22;9005;48.838;10.112;2023-04-30T05:57:24;10.60;99.90
17762;DHT22;9005;48.838;10.112;2023-04-30T05:59:52;10.70;99.90
17762;DHT22;9005;48.838;10.112;2023-04-30T06:02:19;10.80;99.90
17762;DHT22;9005;48.838;10.112;2023-04-30T06:04:46;10.90;99.90
17762;DHT22;9005;48.838;10.112;2023-04-30T06:07:13;11.00;99.90
17762;DHT22;9005;48.838;10.112;2023-04-30T06:09:40;11.10;97.80
17762;DHT22;9005;48.838;10.112;2023-04-30T06:12:06;11.20;91.20
17762;DHT22;9005;48.838;10.112;2023-04-30T06:14:34;11.30;86.90
17762;DHT22;9005;48.838;10.112;2023-04-30T06:17:02;11.40;69.10
17762;DHT22;9005;48.838;10.112;2023-04-30T06:19:29;11.50;62.60
17762;DHT22;9005;48.838;10.112;2023-04-30T06:21:55;11.60;27.20
17762;DHT22;9005;48.838;10.112;2023-04-30T06:24:22;11.60;26.30
17762;DHT22;9005;48.838;10.112;2023-04-30T06:26:51;11.70;27.70
17762;DHT22;9005;48.838;10.112;2023-04-30T06:29:18;11.70;4.00
17762;DHT22;9005;48.838;10.112;2023-04-30T06:31:45;11.70;2.90
17762;DHT22;9005;48.838;10.112;2023-04-30T06:34:13;11.70;29.90
17762;DHT22;9005;48.838;10.112;2023-04-30T06:36:39;11.70;32.70
17762;DHT22;9005;48.838;10.112;2023-04-30T06:39:06;11.80;14.30
17762;DHT22;9005;48.838;10.112;2023-04-30T06:41:34;11.80;1.00
17762;DHT22;9005;48.838;10.112;2023-04-30T06:44:01;11.80;1.00
17762;DHT22;9005;48.838;10.112;2023-04-30T06:46:27;11.90;1.00
17762;DHT22;9005;48.838;10.112;2023-04-30T06:48:54;11.60;1.00
17762;DHT22;9005;48.838;10.112;2023-04-30T06:51:22;11.50;1.00
17762;DHT22;9005;48.838;10.112;2023-04-30T06:53:49;11.50;1.00
17762;DHT22;9005;48.838;10.112;2023-04-30T06:56:15;11.50;23.00
17762;DHT22;9005;48.838;10.112;2023-04-30T06:58:42;11.40;26.90
17762;DHT22;9005;48.838;10.112;2023-04-30T07:01:09;11.50;48.70
17762;DHT22;9005;48.838;10.112;2023-04-30T07:03:36;11.50;43.10
17762;DHT22;9005;48.838;10.112;2023-04-30T07:06:03;11.60;1.00
17762;DHT22;9005;48.838;10.112;2023-04-30T07:08:31;11.60;1.00
17762;DHT22;9005;48.838;10.112;2023-04-30T07:10:57;11.60;1.00
17762;DHT22;9005;48.838;10.112;2023-04-30T07:13:24;11.60;1.00
17762;DHT22;9005;48.838;10.112;2023-04-30T07:15:51;11.60;1.00
17762;DHT22;9005;48.838;10.112;2023-04-30T07:18:18;11.60;1.00
17762;DHT22;9005;48.838;10.112;2023-04-30T07:20:44;11.60;4.80
17762;DHT22;9005;48.838;10.112;2023-04-30T07:23:11;11.60;1.00
17762;DHT22;9005;48.838;10.112;2023-04-30T07:25:39;11.60;1.00
17762;DHT22;9005;48.838;10.112;2023-04-30T07:28:06;11.70;25.50
17762;DHT22;9005;48.838;10.112;2023-04-30T07:30:33;11.70;1.00
17762;DHT22;9005;48.838;10.112;2023-04-30T07:32:59;11.80;1.00
17762;DHT22;9005;48.838;10.112;2023-04-30T07:35:26;11.90;1.00
17762;DHT22;9005;48.838;10.112;2023-04-30T07:37:53;12.00;1.00
17762;DHT22;9005;48.838;10.112;2023-04-30T07:40:19;12.00;1.00
17762;DHT22;9005;48.838;10.112;2023-04-30T07:42:47;12.10;1.00
17762;DHT22;9005;48.838;10.112;2023-04-30T07:45:14;12.20;99.90
17762;DHT22;9005;48.838;10.112;2023-04-30T07:47:41;12.30;99.90
17762;DHT22;9005;48.838;10.112;2023-04-30T07:50:08;12.30;1.00
17762;DHT22;9005;48.838;10.112;2023-04-30T07:52:35;12.40;99.90
17762;DHT22;9005;48.838;10.112;2023-04-30T07:55:02;12.50;99.90
17762;DHT22;9005;48.838;10.112;2023-04-30T07:57:28;12.60;99.90
17762;DHT22;9005;48.838;10.112;2023-04-30T07:59:56;12.70;99.90
17762;DHT22;9005;48.838;10.112;2023-04-30T08:02:23;12.80;99.90
17762;DHT22;9005;48.838;10.112;2023-04-30T08:04:50;12.90;99.90
17762;DHT22;9005;48.838;10.112;2023-04-30T08:07:17;12.90;99.90
17762;DHT22;9005;48.838;10.112;2023-04-30T08:09:45;12.90;99.90
17762;DHT22;9005;48.838;10.112;2023-04-30T08:12:12;13.00;99.90
17762;DHT22;9005;48.838;10.112;2023-04-30T08:14:38;13.30;99.90
17762;DHT22;9005;48.838;10.112;2023-04-30T08:17:06;13.70;99.90
17762;DHT22;9005;48.838;10.112;2023-04-30T08:19:33;14.10;1.00
17762;DHT22;9005;48.838;10.112;2023-04-30T08:22:00;14.50;1.00
17762;DHT22;9005;48.838;10.112;2023-04-30T08:24:27;14.80;99.90
17762;DHT22;9005;48.838;10.112;2023-04-30T09:08:46;17.30;10.20
17762;DHT22;9005;48.838;10.112;2023-04-30T09:11:23;17.20;10.70
17762;DHT22;9005;48.838;10.112;2023-04-30T09:13:50;17.20;16.40
17762;DHT22;9005;48.838;10.112;2023-04-30T09:16:18;17.30;38.70
17762;DHT22;9005;48.838;10.112;2023-04-30T09:18:45;17.20;1.00
17762;DHT22;9005;48.838;10.112;2023-04-30T09:21:13;17.20;4.70
17762;DHT22;9005;48.838;10.112;2023-04-30T09:23:57;17.20;1.00
17762;DHT22;9005;48.838;10.112;2023-04-30T09:26:31;17.10;1.00
17762;DHT22;9005;48.838;10.112;2023-04-30T09:28:58;17.10;1.00
17762;DHT22;9005;48.838;10.112;2023-04-30T09:31:26;17.10;1.00
17762;DHT22;9005;48.838;10.112;2023-04-30T09:33:54;17.20;7.70
17762;DHT22;9005;48.838;10.112;2023-04-30T09:36:20;17.40;28.30
17762;DHT22;9005;48.838;10.112;2023-04-30T09:38:47;17.60;1.00
17762;DHT22;9005;48.838;10.112;2023-04-30T09:41:23;17.90;1.00
17762;DHT22;9005;48.838;10.112;2023-04-30T09:43:50;17.90;1.00
17762;DHT22;9005;48.838;10.112;2023-04-30T09:46:18;18.20;1.00
17762;DHT22;9005;48.838;10.112;2023-04-30T09:48:45;18.30;1.00
17762;DHT22;9005;48.838;10.112;2023-04-30T09:51:11;18.40;1.00
17762;DHT22;9005;48.838;10.112;2023-04-30T09:53:41;18.40;1.00
17762;DHT22;9005;48.838;10.112;2023-04-30T09:56:11;18.70;1.00
17762;DHT22;9005;48.838;10.112;2023-04-30T09:58:43;18.70;1.00
17762;DHT22;9005;48.838;10.112;2023-04-30T10:01:10;19.00;1.00
17762;DHT22;9005;48.838;10.112;2023-04-30T10:03:38;19.00;1.00
17762;DHT22;9005;48.838;10.112;2023-04-30T10:06:06;19.10;1.00
17762;DHT22;9005;48.838;10.112;2023-04-30T10:08:37;19.40;1.00
17762;DHT22;9005;48.838;10.112;2023-04-30T10:11:06;19.40;1.00
17762;DHT22;9005;48.838;10.112;2023-04-30T10:13:40;19.40;1.00
17762;DHT22;9005;48.838;10.112;2023-04-30T10:16:13;19.20;1.00
17762;DHT22;9005;48.838;10.112;2023-04-30T10:18:45;18.90;1.00
17762;DHT22;9005;48.838;10.112;2023-04-30T10:21:15;18.60;1.00
17762;DHT22;9005;48.838;10.112;2023-04-30T10:23:43;18.40;1.00
17762;DHT22;9005;48.838;10.112;2023-04-30T10:26:10;18.50;1.00
17762;DHT22;9005;48.838;10.112;2023-04-30T10:28:39;18.50;1.00
17762;DHT22;9005;48.838;10.112;2023-04-30T10:31:06;18.50;16.70
17762;DHT22;9005;48.838;10.112;2023-04-30T10:33:41;18.30;1.00
17762;DHT22;9005;48.838;10.112;2023-04-30T10:36:20;18.30;1.00
17762;DHT22;9005;48.838;10.112;2023-04-30T10:38:50;18.30;1.00
17762;DHT22;9005;48.838;10.112;2023-04-30T10:41:18;18.50;1.00
17762;DHT22;9005;48.838;10.112;2023-04-30T10:43:46;18.60;1.00
17762;DHT22;9005;48.838;10.112;2023-04-30T10:46:21;18.90;1.00
17762;DHT22;9005;48.838;10.112;2023-04-30T10:48:49;19.10;1.00
17762;DHT22;9005;48.838;10.112;2023-04-30T10:51:19;19.20;1.00
17762;DHT22;9005;48.838;10.112;2023-04-30T10:53:48;19.30;1.00
17762;DHT22;9005;48.838;10.112;2023-04-30T10:56:29;19.20;1.00
17762;DHT22;9005;48.838;10.112;2023-04-30T10:58:59;19.00;1.00
17762;DHT22;9005;48.838;10.112;2023-04-30T11:01:27;18.90;1.00
17762;DHT22;9005;48.838;10.112;2023-04-30T11:04:05;18.80;1.00
17762;DHT22;9005;48.838;10.112;2023-04-30T11:06:47;18.70;1.00
17762;DHT22;9005;48.838;10.112;2023-04-30T11:09:14;18.70;1.00
17762;DHT22;9005;48.838;10.112;2023-04-30T11:11:43;18.70;1.00
17762;DHT22;9005;48.838;10.112;2023-04-30T11:14:11;18.60;1.00
17762;DHT22;9005;48.838;10.112;2023-04-30T11:16:38;18.70;1.00
17762;DHT22;9005;48.838;10.112;2023-04-30T11:19:05;18.90;1.00
17762;DHT22;9005;48.838;10.112;2023-04-30T11:21:32;19.30;1.00
17762;DHT22;9005;48.838;10.112;2023-04-30T11:24:02;19.50;1.00
17762;DHT22;9005;48.838;10.112;2023-04-30T11:26:29;19.90;1.00
17762;DHT22;9005;48.838;10.112;2023-04-30T11:28:56;20.50;1.00
17762;DHT22;9005;48.838;10.112;2023-04-30T11:31:33;20.90;1.00
17762;DHT22;9005;48.838;10.112;2023-04-30T11:34:00;21.10;1.00
17762;DHT22;9005;48.838;10.112;2023-04-30T11:36:29;21.40;1.00
17762;DHT22;9005;48.838;10.112;2023-04-30T11:38:58;21.90;1.00
17762;DHT22;9005;48.838;10.112;2023-04-30T11:41:25;22.70;1.00
17762;DHT22;9005;48.838;10.112;2023-04-30T11:43:52;23.40;1.00
17762;DHT22;9005;48.838;10.112;2023-04-30T11:46:18;24.10;1.00
17762;DHT22;9005;48.838;10.112;2023-04-30T11:48:46;24.10;1.00
17762;DHT22;9005;48.838;10.112;2023-04-30T11:51:14;23.80;1.00
17762;DHT22;9005;48.838;10.112;2023-04-30T11:53:41;23.50;1.00
17762;DHT22;9005;48.838;10.112;2023-04-30T11:56:08;23.50;1.00
17762;DHT22;9005;48.838;10.112;2023-04-30T11:58:36;23.30;1.00
17762;DHT22;9005;48.838;10.112;2023-04-30T12:01:04;22.80;1.00
17762;DHT22;9005;48.838;10.112;2023-04-30T12:03:31;22.00;1.00
17762;DHT22;9005;48.838;10.112;2023-04-30T12:05:59;21.50;1.00
17762;DHT22;9005;48.838;10.112;2023-04-30T12:08:27;21.70;1.00
17762;DHT22;9005;48.838;10.112;2023-04-30T12:10:54;21.70;1.00
17762;DHT22;9005;48.838;10.112;2023-04-30T12:13:21;21.80;1.00
17762;DHT22;9005;48.838;10.112;2023-04-30T12:15:57;21.60;1.00
17762;DHT22;9005;48.838;10.112;2023-04-30T12:18:24;21.20;1.00
17762;DHT22;9005;48.838;10.112;2023-04-30T12:20:51;20.70;1.00
17762;DHT22;9005;48.838;10.112;2023-04-30T12:23:20;20.20;1.00
17762;DHT22;9005;48.838;10.112;2023-04-30T12:25:47;19.80;1.00
17762;DHT22;9005;48.838;10.112;2023-04-30T12:28:13;19.40;1.00
17762;DHT22;9005;48.838;10.112;2023-04-30T12:30:41;19.10;1.00
17762;DHT22;9005;48.838;10.112;2023-04-30T12:33:09;19.20;1.00
17762;DHT22;9005;48.838;10.112;2023-04-30T12:35:40;19.40;1.00
17762;DHT22;9005;48.838;10.112;2023-04-30T12:38:07;19.60;1.00
17762;DHT22;9005;48.838;10.112;2023-04-30T12:40:36;19.80;1.00
17762;DHT22;9005;48.838;10.112;2023-04-30T12:43:04;20.00;1.00
17762;DHT22;9005;48.838;10.112;2023-04-30T12:45:45;20.30;1.00
17762;DHT22;9005;48.838;10.112;2023-04-30T12:48:14;20.20;1.00
17762;DHT22;9005;48.838;10.112;2023-04-30T12:50:41;20.30;1.00
17762;DHT22;9005;48.838;10.112;2023-04-30T12:53:08;20.40;1.00
17762;DHT22;9005;48.838;10.112;2023-04-30T12:55:37;20.50;1.00
17762;DHT22;9005;48.838;10.112;2023-04-30T12:58:05;20.50;1.00
17762;DHT22;9005;48.838;10.112;2023-04-30T13:00:43;20.60;1.00
17762;DHT22;9005;48.838;10.112;2023-04-30T13:03:10;20.50;1.00
17762;DHT22;9005;48.838;10.112;2023-04-30T13:05:36;20.60;1.00
17762;DHT22;9005;48.838;10.112;2023-04-30T13:08:03;20.60;1.00
17762;DHT22;9005;48.838;10.112;2023-04-30T13:10:31;20.50;1.00
17762;DHT22;9005;48.838;10.112;2023-04-30T13:12:59;20.60;1.00
17762;DHT22;9005;48.838;10.112;2023-04-30T13:15:26;20.80;1.00
17762;DHT22;9005;48.838;10.112;2023-04-30T13:17:53;21.30;1.00
17762;DHT22;9005;48.838;10.112;2023-04-30T13:20:20;21.70;1.00
17762;DHT22;9005;48.838;10.112;2023-04-30T13:22:47;21.80;1.00
17762;DHT22;9005;48.838;10.112;2023-04-30T13:25:14;21.90;1.00
17762;DHT22;9005;48.838;10.112;2023-04-30T13:27:41;22.00;1.00
17762;DHT22;9005;48.838;10.112;2023-04-30T13:30:10;21.90;1.00
17762;DHT22;9005;48.838;10.112;2023-04-30T13:32:37;22.30;1.00
17762;DHT22;9005;48.838;10.112;2023-04-30T13:35:04;23.00;1.00
17762;DHT22;9005;48.838;10.112;2023-04-30T13:37:31;23.50;1.00
17762;DHT22;9005;48.838;10.112;2023-04-30T13:40:00;23.50;1.00
17762;DHT22;9005;48.838;10.112;2023-04-30T13:42:28;23.10;1.00
17762;DHT22;9005;48.838;10.112;2023-04-30T13:44:55;22.60;1.00
17762;DHT22;9005;48.838;10.112;2023-04-30T13:47:23;22.30;1.00
17762;DHT22;9005;48.838;10.112;2023-04-30T13:49:50;22.10;1.00
17762;DHT22;9005;48.838;10.112;2023-04-30T13:52:17;22.10;1.00
17762;DHT22;9005;48.838;10.112;2023-04-30T13:54:43;21.80;1.00
17762;DHT22;9005;48.838;10.112;2023-04-30T13:57:10;21.40;1.00
17762;DHT22;9005;48.838;10.112;2023-04-30T13:59:37;21.20;1.00
17762;DHT22;9005;48.838;10.112;2023-04-30T14:02:04;21.00;1.00
17762;DHT22;9005;48.838;10.112;2023-04-30T14:04:32;20.90;1.00
17762;DHT22;9005;48.838;10.112;2023-04-30T14:06:59;20.90;1.00
17762;DHT22;9005;48.838;10.112;2023-04-30T14:09:26;21.00;1.00
17762;DHT22;9005;48.838;10.112;2023-04-30T14:11:53;21.10;1.00
17762;DHT22;9005;48.838;10.112;2023-04-30T14:14:22;21.20;1.00
17762;DHT22;9005;48.838;10.112;2023-04-30T14:16:49;21.30;1.00
17762;DHT22;9005;48.838;10.112;2023-04-30T14:19:16;21.30;1.00
17762;DHT22;9005;48.838;10.112;2023-04-30T14:21:44;21.20;1.00
17762;DHT22;9005;48.838;10.112;2023-04-30T14:24:11;20.20;1.00
17762;DHT22;9005;48.838;10.112;2023-04-30T14:26:38;21.10;1.00
17762;DHT22;9005;48.838;10.112;2023-04-30T14:29:05;21.10;1.00
17762;DHT22;9005;48.838;10.112;2023-04-30T14:31:32;21.40;1.00
17762;DHT22;9005;48.838;10.112;2023-04-30T14:33:59;22.30;1.00
17762;DHT22;9005;48.838;10.112;2023-04-30T14:36:26;23.40;1.00
17762;DHT22;9005;48.838;10.112;2023-04-30T14:38:54;24.00;1.00
17762;DHT22;9005;48.838;10.112;2023-04-30T14:41:21;24.80;1.00
17762;DHT22;9005;48.838;10.112;2023-04-30T14:43:48;25.30;1.00
17762;DHT22;9005;48.838;10.112;2023-04-30T14:46:17;25.90;1.00
17762;DHT22;9005;48.838;10.112;2023-04-30T14:48:44;26.50;1.00
17762;DHT22;9005;48.838;10.112;2023-04-30T14:51:10;27.00;1.00
17762;DHT22;9005;48.838;10.112;2023-04-30T14:53:37;27.30;1.00
17762;DHT22;9005;48.838;10.112;2023-04-30T14:56:06;27.00;1.00
17762;DHT22;9005;48.838;10.112;2023-04-30T14:58:32;26.20;1.00
17762;DHT22;9005;48.838;10.112;2023-04-30T15:00:59;25.60;1.00
17762;DHT22;9005;48.838;10.112;2023-04-30T15:03:26;24.90;1.00
17762;DHT22;9005;48.838;10.112;2023-04-30T15:05:53;24.60;1.00
17762;DHT22;9005;48.838;10.112;2023-04-30T15:08:20;24.60;1.00
17762;DHT22;9005;48.838;10.112;2023-04-30T15:10:47;24.60;1.00
17762;DHT22;9005;48.838;10.112;2023-04-30T15:13:15;24.60;1.00
17762;DHT22;9005;48.838;10.112;2023-04-30T15:15:41;23.80;1.00
17762;DHT22;9005;48.838;10.112;2023-04-30T15:18:11;23.30;1.00
17762;DHT22;9005;48.838;10.112;2023-04-30T15:20:38;22.90;1.00
17762;DHT22;9005;48.838;10.112;2023-04-30T15:23:05;22.80;1.00
17762;DHT22;9005;48.838;10.112;2023-04-30T15:25:32;22.80;1.00
17762;DHT22;9005;48.838;10.112;2023-04-30T15:27:59;22.80;1.00
17762;DHT22;9005;48.838;10.112;2023-04-30T15:30:27;22.80;1.00
17762;DHT22;9005;48.838;10.112;2023-04-30T15:32:54;22.80;1.00
17762;DHT22;9005;48.838;10.112;2023-04-30T15:35:21;22.90;1.00
17762;DHT22;9005;48.838;10.112;2023-04-30T15:37:48;23.10;1.00
17762;DHT22;9005;48.838;10.112;2023-04-30T15:40:15;23.40;1.00
17762;DHT22;9005;48.838;10.112;2023-04-30T15:42:42;23.80;1.00
17762;DHT22;9005;48.838;10.112;2023-04-30T15:45:09;24.40;1.00
17762;DHT22;9005;48.838;10.112;2023-04-30T15:47:37;25.10;1.00
17762;DHT22;9005;48.838;10.112;2023-04-30T15:50:06;25.40;1.00
17762;DHT22;9005;48.838;10.112;2023-04-30T15:52:33;25.50;1.00
17762;DHT22;9005;48.838;10.112;2023-04-30T15:55:00;25.50;1.00
17762;DHT22;9005;48.838;10.112;2023-04-30T15:57:27;25.30;1.00
17762;DHT22;9005;48.838;10.112;2023-04-30T15:59:53;25.10;1.00
17762;DHT22;9005;48.838;10.112;2023-04-30T16:02:20;24.80;1.00
17762;DHT22;9005;48.838;10.112;2023-04-30T16:04:48;24.30;1.00
17762;DHT22;9005;48.838;10.112;2023-04-30T16:07:15;23.70;1.00
17762;DHT22;9005;48.838;10.112;2023-04-30T16:09:42;23.30;1.00
17762;DHT22;9005;48.838;10.112;2023-04-30T16:12:10;22.70;1.00
17762;DHT22;9005;48.838;10.112;2023-04-30T16:14:37;22.30;1.00
17762;DHT22;9005;48.838;10.112;2023-04-30T16:17:04;21.90;1.00
17762;DHT22;9005;48.838;10.112;2023-04-30T16:19:30;21.60;1.00
17762;DHT22;9005;48.838;10.112;2023-04-30T16:21:58;21.50;1.00
17762;DHT22;9005;48.838;10.112;2023-04-30T16:24:26;21.40;1.00
17762;DHT22;9005;48.838;10.112;2023-04-30T16:26:53;21.40;1.00
17762;DHT22;9005;48.838;10.112;2023-04-30T16:29:19;21.60;1.00
17762;DHT22;9005;48.838;10.112;2023-04-30T16:31:46;21.60;1.00